sensor_id;sensor_type;location;lat;lon;timestamp;P1;durP1;ratioP1;P2;durP2;ratioP2
46835;SDS011;32573;51.290;6.926;2023-02-22T00:01:12;11.85;;;5.55;;
46835;SDS011;32573;51.290;6.926;2023-02-22T00:03:50;10.93;;;5.03;;
46835;SDS011;32573;51.290;6.926;2023-02-22T00:06:20;10.70;;;4.45;;
46835;SDS011;32573;51.290;6.926;2023-02-22T00:08:51;9.07;;;4.65;;
46835;SDS011;32573;51.290;6.926;2023-02-22T00:11:19;11.20;;;4.72;;
46835;SDS011;32573;51.290;6.926;2023-02-22T00:13:48;9.60;;;4.55;;
46835;SDS011;32573;51.290;6.926;2023-02-22T00:16:18;9.68;;;4.65;;
46835;SDS011;32573;51.290;6.926;2023-02-22T00:18:47;10.25;;;4.57;;
46835;SDS011;32573;51.290;6.926;2023-02-22T00:21:18;8.98;;;4.57;;
46835;SDS011;32573;51.290;6.926;2023-02-22T00:23:47;10.48;;;4.95;;
46835;SDS011;32573;51.290;6.926;2023-02-22T00:26:17;9.63;;;4.38;;
46835;SDS011;32573;51.290;6.926;2023-02-22T00:28:47;7.60;;;4.38;;
46835;SDS011;32573;51.290;6.926;2023-02-22T00:31:17;8.48;;;4.25;;
46835;SDS011;32573;51.290;6.926;2023-02-22T00:33:48;8.48;;;3.92;;
46835;SDS011;32573;51.290;6.926;2023-02-22T00:36:18;8.07;;;4.13;;
46835;SDS011;32573;51.290;6.926;2023-02-22T00:38:47;9.10;;;4.68;;
46835;SDS011;32573;51.290;6.926;2023-02-22T00:41:15;9.00;;;4.18;;
46835;SDS011;32573;51.290;6.926;2023-02-22T00:43:44;8.48;;;4.60;;
46835;SDS011;32573;51.290;6.926;2023-02-22T00:46:14;6.88;;;3.53;;
46835;SDS011;32573;51.290;6.926;2023-02-22T00:48:44;9.35;;;4.50;;
46835;SDS011;32573;51.290;6.926;2023-02-22T00:51:13;7.43;;;3.90;;
46835;SDS011;32573;51.290;6.926;2023-02-22T00:53:43;8.18;;;4.05;;
46835;SDS011;32573;51.290;6.926;2023-02-22T00:56:11;8.07;;;4.07;;
46835;SDS011;32573;51.290;6.926;2023-02-22T00:58:40;7.40;;;3.53;;
46835;SDS011;32573;51.290;6.926;2023-02-22T01:01:08;7.60;;;4.05;;
46835;SDS011;32573;51.290;6.926;2023-02-22T01:03:38;7.47;;;3.42;;
46835;SDS011;32573;51.290;6.926;2023-02-22T01:06:07;7.35;;;3.95;;
46835;SDS011;32573;51.290;6.926;2023-02-22T01:08:38;8.85;;;4.55;;
46835;SDS011;32573;51.290;6.926;2023-02-22T01:11:12;7.65;;;3.97;;
46835;SDS011;32573;51.290;6.926;2023-02-22T01:13:42;8.52;;;4.25;;
46835;SDS011;32573;51.290;6.926;2023-02-22T01:16:11;9.00;;;4.55;;
46835;SDS011;32573;51.290;6.926;2023-02-22T01:18:40;8.70;;;4.43;;
46835;SDS011;32573;51.290;6.926;2023-02-22T01:21:09;8.60;;;4.22;;
46835;SDS011;32573;51.290;6.926;2023-02-22T01:23:39;8.90;;;4.18;;
46835;SDS011;32573;51.290;6.926;2023-02-22T01:26:09;7.63;;;3.92;;
46835;SDS011;32573;51.290;6.926;2023-02-22T01:28:38;8.15;;;3.75;;
46835;SDS011;32573;51.290;6.926;2023-02-22T01:31:06;8.68;;;4.07;;
46835;SDS011;32573;51.290;6.926;2023-02-22T01:33:35;7.88;;;3.95;;
46835;SDS011;32573;51.290;6.926;2023-02-22T01:36:04;7.38;;;3.67;;
46835;SDS011;32573;51.290;6.926;2023-02-22T01:38:43;6.78;;;3.72;;
46835;SDS011;32573;51.290;6.926;2023-02-22T01:41:14;7.07;;;3.80;;
46835;SDS011;32573;51.290;6.926;2023-02-22T01:43:44;7.13;;;3.67;;
46835;SDS011;32573;51.290;6.926;2023-02-22T01:46:18;8.32;;;3.95;;
46835;SDS011;32573;51.290;6.926;2023-02-22T01:48:49;7.20;;;3.63;;
46835;SDS011;32573;51.290;6.926;2023-02-22T01:53:57;7.10;;;3.72;;
46835;SDS011;32573;51.290;6.926;2023-02-22T01:56:40;8.15;;;3.97;;
46835;SDS011;32573;51.290;6.926;2023-02-22T01:59:18;6.68;;;3.35;;
46835;SDS011;32573;51.290;6.926;2023-02-22T02:01:49;6.35;;;3.33;;
46835;SDS011;32573;51.290;6.926;2023-02-22T02:04:19;7.68;;;3.72;;
46835;SDS011;32573;51.290;6.926;2023-02-22T02:06:54;6.75;;;3.60;;
46835;SDS011;32573;51.290;6.926;2023-02-22T02:09:29;6.40;;;3.17;;
46835;SDS011;32573;51.290;6.926;2023-02-22T02:12:04;7.70;;;3.75;;
46835;SDS011;32573;51.290;6.926;2023-02-22T02:14:37;7.32;;;3.72;;
46835;SDS011;32573;51.290;6.926;2023-02-22T02:17:06;8.55;;;4.20;;
46835;SDS011;32573;51.290;6.926;2023-02-22T02:19:40;6.90;;;3.42;;
46835;SDS011;32573;51.290;6.926;2023-02-22T02:22:20;6.97;;;3.65;;
46835;SDS011;32573;51.290;6.926;2023-02-22T02:28:17;7.43;;;3.42;;
46835;SDS011;32573;51.290;6.926;2023-02-22T02:34:30;6.57;;;3.35;;
46835;SDS011;32573;51.290;6.926;2023-02-22T02:37:04;7.72;;;3.85;;
46835;SDS011;32573;51.290;6.926;2023-02-22T02:39:40;7.07;;;3.15;;
46835;SDS011;32573;51.290;6.926;2023-02-22T02:42:17;6.07;;;3.15;;
46835;SDS011;32573;51.290;6.926;2023-02-22T02:44:52;8.35;;;4.35;;
46835;SDS011;32573;51.290;6.926;2023-02-22T02:47:25;7.53;;;3.30;;
46835;SDS011;32573;51.290;6.926;2023-02-22T02:49:58;6.57;;;3.10;;
46835;SDS011;32573;51.290;6.926;2023-02-22T02:52:30;6.35;;;3.15;;
46835;SDS011;32573;51.290;6.926;2023-02-22T02:55:02;6.80;;;3.28;;
46835;SDS011;32573;51.290;6.926;2023-02-22T02:57:33;7.53;;;3.67;;
46835;SDS011;32573;51.290;6.926;2023-02-22T03:00:02;6.18;;;3.03;;
46835;SDS011;32573;51.290;6.926;2023-02-22T03:02:43;5.97;;;3.05;;
46835;SDS011;32573;51.290;6.926;2023-02-22T03:05:27;7.00;;;3.30;;
46835;SDS011;32573;51.290;6.926;2023-02-22T03:08:12;6.03;;;3.20;;
46835;SDS011;32573;51.290;6.926;2023-02-22T03:10:51;6.15;;;3.20;;
46835;SDS011;32573;51.290;6.926;2023-02-22T03:13:29;6.00;;;3.28;;
46835;SDS011;32573;51.290;6.926;2023-02-22T03:16:07;6.75;;;3.60;;
46835;SDS011;32573;51.290;6.926;2023-02-22T03:18:47;6.85;;;3.63;;
46835;SDS011;32573;51.290;6.926;2023-02-22T03:21:25;6.75;;;3.55;;
46835;SDS011;32573;51.290;6.926;2023-02-22T03:24:08;7.00;;;3.53;;
46835;SDS011;32573;51.290;6.926;2023-02-22T03:26:44;7.68;;;3.55;;
46835;SDS011;32573;51.290;6.926;2023-02-22T03:29:19;6.43;;;3.22;;
46835;SDS011;32573;51.290;6.926;2023-02-22T03:31:52;6.50;;;3.50;;
46835;SDS011;32573;51.290;6.926;2023-02-22T03:34:36;6.40;;;3.40;;
46835;SDS011;32573;51.290;6.926;2023-02-22T03:37:10;5.63;;;3.08;;
46835;SDS011;32573;51.290;6.926;2023-02-22T03:39:44;6.68;;;3.42;;
46835;SDS011;32573;51.290;6.926;2023-02-22T03:42:17;6.47;;;3.03;;
46835;SDS011;32573;51.290;6.926;2023-02-22T03:44:52;6.15;;;3.15;;
46835;SDS011;32573;51.290;6.926;2023-02-22T03:47:30;6.43;;;3.42;;
46835;SDS011;32573;51.290;6.926;2023-02-22T03:50:08;5.70;;;3.13;;
46835;SDS011;32573;51.290;6.926;2023-02-22T03:52:41;5.40;;;2.75;;
46835;SDS011;32573;51.290;6.926;2023-02-22T03:55:20;6.13;;;3.10;;
46835;SDS011;32573;51.290;6.926;2023-02-22T03:57:50;5.07;;;2.60;;
46835;SDS011;32573;51.290;6.926;2023-02-22T04:00:22;5.90;;;2.83;;
46835;SDS011;32573;51.290;6.926;2023-02-22T04:02:52;6.18;;;3.28;;
46835;SDS011;32573;51.290;6.926;2023-02-22T04:05:22;5.50;;;2.78;;
46835;SDS011;32573;51.290;6.926;2023-02-22T04:07:52;5.38;;;2.65;;
46835;SDS011;32573;51.290;6.926;2023-02-22T04:10:21;7.10;;;4.00;;
46835;SDS011;32573;51.290;6.926;2023-02-22T04:12:50;6.45;;;3.55;;
46835;SDS011;32573;51.290;6.926;2023-02-22T04:15:20;5.50;;;2.88;;
46835;SDS011;32573;51.290;6.926;2023-02-22T04:17:54;6.00;;;2.92;;
46835;SDS011;32573;51.290;6.926;2023-02-22T04:20:24;5.95;;;3.20;;
46835;SDS011;32573;51.290;6.926;2023-02-22T04:22:59;7.10;;;3.25;;
46835;SDS011;32573;51.290;6.926;2023-02-22T04:25:29;8.02;;;3.85;;
46835;SDS011;32573;51.290;6.926;2023-02-22T04:28:10;7.35;;;3.60;;
46835;SDS011;32573;51.290;6.926;2023-02-22T04:30:49;6.03;;;3.00;;
46835;SDS011;32573;51.290;6.926;2023-02-22T04:33:34;5.22;;;2.90;;
46835;SDS011;32573;51.290;6.926;2023-02-22T04:36:10;6.30;;;3.43;;
46835;SDS011;32573;51.290;6.926;2023-02-22T04:38:52;6.05;;;2.95;;
46835;SDS011;32573;51.290;6.926;2023-02-22T04:41:20;5.47;;;2.88;;
46835;SDS011;32573;51.290;6.926;2023-02-22T04:43:51;5.45;;;2.65;;
46835;SDS011;32573;51.290;6.926;2023-02-22T04:46:25;6.13;;;3.15;;
46835;SDS011;32573;51.290;6.926;2023-02-22T04:48:59;5.70;;;3.00;;
46835;SDS011;32573;51.290;6.926;2023-02-22T04:51:31;5.45;;;3.08;;
46835;SDS011;32573;51.290;6.926;2023-02-22T04:54:05;5.32;;;3.08;;
46835;SDS011;32573;51.290;6.926;2023-02-22T04:56:36;6.07;;;3.17;;
46835;SDS011;32573;51.290;6.926;2023-02-22T04:59:05;5.32;;;2.95;;
46835;SDS011;32573;51.290;6.926;2023-02-22T05:01:43;5.40;;;2.63;;
46835;SDS011;32573;51.290;6.926;2023-02-22T05:04:12;4.93;;;2.70;;
46835;SDS011;32573;51.290;6.926;2023-02-22T05:06:43;5.85;;;2.97;;
46835;SDS011;32573;51.290;6.926;2023-02-22T05:09:22;5.63;;;2.75;;
46835;SDS011;32573;51.290;6.926;2023-02-22T05:11:53;5.00;;;2.50;;
46835;SDS011;32573;51.290;6.926;2023-02-22T05:14:23;4.65;;;2.40;;
46835;SDS011;32573;51.290;6.926;2023-02-22T05:16:53;4.65;;;2.40;;
46835;SDS011;32573;51.290;6.926;2023-02-22T05:19:22;5.25;;;2.55;;
46835;SDS011;32573;51.290;6.926;2023-02-22T05:22:06;5.25;;;2.80;;
46835;SDS011;32573;51.290;6.926;2023-02-22T05:24:35;4.80;;;2.50;;
46835;SDS011;32573;51.290;6.926;2023-02-22T05:27:04;4.82;;;2.47;;
46835;SDS011;32573;51.290;6.926;2023-02-22T05:29:34;5.18;;;2.60;;
46835;SDS011;32573;51.290;6.926;2023-02-22T05:32:05;5.03;;;2.45;;
46835;SDS011;32573;51.290;6.926;2023-02-22T05:34:35;4.65;;;2.30;;
46835;SDS011;32573;51.290;6.926;2023-02-22T05:37:04;5.70;;;2.47;;
46835;SDS011;32573;51.290;6.926;2023-02-22T05:39:34;5.65;;;2.60;;
46835;SDS011;32573;51.290;6.926;2023-02-22T05:42:03;5.55;;;3.30;;
46835;SDS011;32573;51.290;6.926;2023-02-22T05:44:33;5.72;;;3.08;;
46835;SDS011;32573;51.290;6.926;2023-02-22T05:47:01;6.55;;;3.35;;
46835;SDS011;32573;51.290;6.926;2023-02-22T05:49:30;5.85;;;2.80;;
46835;SDS011;32573;51.290;6.926;2023-02-22T05:51:59;6.03;;;3.00;;
46835;SDS011;32573;51.290;6.926;2023-02-22T05:54:29;6.30;;;3.20;;
46835;SDS011;32573;51.290;6.926;2023-02-22T05:56:57;6.25;;;3.35;;
46835;SDS011;32573;51.290;6.926;2023-02-22T05:59:26;6.03;;;3.00;;
46835;SDS011;32573;51.290;6.926;2023-02-22T06:02:15;6.53;;;3.00;;
46835;SDS011;32573;51.290;6.926;2023-02-22T06:04:48;6.07;;;3.10;;
46835;SDS011;32573;51.290;6.926;2023-02-22T06:07:16;4.82;;;2.97;;
46835;SDS011;32573;51.290;6.926;2023-02-22T06:09:46;7.53;;;3.05;;
46835;SDS011;32573;51.290;6.926;2023-02-22T06:12:15;6.47;;;3.42;;
46835;SDS011;32573;51.290;6.926;2023-02-22T06:14:43;5.93;;;3.15;;
46835;SDS011;32573;51.290;6.926;2023-02-22T06:17:13;6.45;;;3.22;;
46835;SDS011;32573;51.290;6.926;2023-02-22T06:19:42;6.18;;;3.20;;
46835;SDS011;32573;51.290;6.926;2023-02-22T06:22:13;6.32;;;3.53;;
46835;SDS011;32573;51.290;6.926;2023-02-22T06:24:44;6.78;;;3.60;;
46835;SDS011;32573;51.290;6.926;2023-02-22T06:27:25;6.95;;;3.38;;
46835;SDS011;32573;51.290;6.926;2023-02-22T06:30:00;5.97;;;3.15;;
46835;SDS011;32573;51.290;6.926;2023-02-22T06:32:30;7.93;;;3.97;;
46835;SDS011;32573;51.290;6.926;2023-02-22T06:34:59;7.15;;;3.63;;
46835;SDS011;32573;51.290;6.926;2023-02-22T06:37:27;7.53;;;3.92;;
46835;SDS011;32573;51.290;6.926;2023-02-22T06:39:57;6.97;;;3.55;;
46835;SDS011;32573;51.290;6.926;2023-02-22T06:42:31;7.03;;;3.70;;
46835;SDS011;32573;51.290;6.926;2023-02-22T06:44:59;7.75;;;3.47;;
46835;SDS011;32573;51.290;6.926;2023-02-22T06:47:28;7.30;;;3.70;;
46835;SDS011;32573;51.290;6.926;2023-02-22T06:49:57;6.50;;;3.45;;
46835;SDS011;32573;51.290;6.926;2023-02-22T06:52:26;6.50;;;3.63;;
46835;SDS011;32573;51.290;6.926;2023-02-22T06:54:55;7.65;;;3.90;;
46835;SDS011;32573;51.290;6.926;2023-02-22T06:57:24;6.90;;;3.60;;
46835;SDS011;32573;51.290;6.926;2023-02-22T06:59:53;7.63;;;3.63;;
46835;SDS011;32573;51.290;6.926;2023-02-22T07:02:22;7.32;;;3.90;;
46835;SDS011;32573;51.290;6.926;2023-02-22T07:04:50;8.00;;;4.03;;
46835;SDS011;32573;51.290;6.926;2023-02-22T07:07:21;7.30;;;3.78;;
46835;SDS011;32573;51.290;6.926;2023-02-22T07:09:53;6.03;;;3.30;;
46835;SDS011;32573;51.290;6.926;2023-02-22T07:12:22;8.82;;;4.60;;
46835;SDS011;32573;51.290;6.926;2023-02-22T07:14:54;8.45;;;4.60;;
46835;SDS011;32573;51.290;6.926;2023-02-22T07:17:23;7.43;;;4.25;;
46835;SDS011;32573;51.290;6.926;2023-02-22T07:19:51;6.32;;;3.80;;
46835;SDS011;32573;51.290;6.926;2023-02-22T07:22:20;8.10;;;4.28;;
46835;SDS011;32573;51.290;6.926;2023-02-22T07:24:49;9.15;;;4.72;;
46835;SDS011;32573;51.290;6.926;2023-02-22T07:27:18;8.68;;;4.88;;
46835;SDS011;32573;51.290;6.926;2023-02-22T07:29:46;9.63;;;5.13;;
46835;SDS011;32573;51.290;6.926;2023-02-22T07:32:17;9.43;;;5.07;;
46835;SDS011;32573;51.290;6.926;2023-02-22T07:34:48;9.35;;;4.43;;
46835;SDS011;32573;51.290;6.926;2023-02-22T07:37:17;10.13;;;5.20;;
46835;SDS011;32573;51.290;6.926;2023-02-22T07:39:47;8.60;;;4.30;;
46835;SDS011;32573;51.290;6.926;2023-02-22T07:42:15;8.90;;;4.85;;
46835;SDS011;32573;51.290;6.926;2023-02-22T07:44:45;10.93;;;5.80;;
46835;SDS011;32573;51.290;6.926;2023-02-22T07:47:13;8.95;;;4.95;;
46835;SDS011;32573;51.290;6.926;2023-02-22T07:49:45;10.07;;;5.35;;
46835;SDS011;32573;51.290;6.926;2023-02-22T07:52:14;8.57;;;4.50;;
46835;SDS011;32573;51.290;6.926;2023-02-22T07:54:44;8.70;;;4.68;;
46835;SDS011;32573;51.290;6.926;2023-02-22T07:57:18;10.45;;;5.70;;
46835;SDS011;32573;51.290;6.926;2023-02-22T07:59:50;9.13;;;5.30;;
46835;SDS011;32573;51.290;6.926;2023-02-22T08:02:19;12.45;;;6.28;;
46835;SDS011;32573;51.290;6.926;2023-02-22T08:04:51;10.18;;;5.53;;
46835;SDS011;32573;51.290;6.926;2023-02-22T08:07:31;11.48;;;5.93;;
46835;SDS011;32573;51.290;6.926;2023-02-22T08:10:00;11.02;;;5.82;;
46835;SDS011;32573;51.290;6.926;2023-02-22T08:12:36;9.35;;;5.28;;
46835;SDS011;32573;51.290;6.926;2023-02-22T08:15:13;12.57;;;6.10;;
46835;SDS011;32573;51.290;6.926;2023-02-22T08:17:51;10.00;;;5.30;;
46835;SDS011;32573;51.290;6.926;2023-02-22T08:20:27;9.88;;;5.47;;
46835;SDS011;32573;51.290;6.926;2023-02-22T08:23:01;10.65;;;5.63;;
46835;SDS011;32573;51.290;6.926;2023-02-22T08:25:34;16.10;;;8.27;;
46835;SDS011;32573;51.290;6.926;2023-02-22T08:28:05;10.95;;;5.50;;
46835;SDS011;32573;51.290;6.926;2023-02-22T08:30:42;10.57;;;5.60;;
46835;SDS011;32573;51.290;6.926;2023-02-22T08:33:15;12.15;;;6.22;;
46835;SDS011;32573;51.290;6.926;2023-02-22T08:35:53;9.25;;;5.63;;
46835;SDS011;32573;51.290;6.926;2023-02-22T08:38:34;14.18;;;6.13;;
46835;SDS011;32573;51.290;6.926;2023-02-22T08:41:09;15.73;;;7.75;;
46835;SDS011;32573;51.290;6.926;2023-02-22T08:43:42;12.32;;;6.15;;
46835;SDS011;32573;51.290;6.926;2023-02-22T08:46:22;16.00;;;7.97;;
46835;SDS011;32573;51.290;6.926;2023-02-22T08:48:53;10.05;;;5.70;;
46835;SDS011;32573;51.290;6.926;2023-02-22T08:51:28;13.50;;;6.40;;
46835;SDS011;32573;51.290;6.926;2023-02-22T08:53:58;10.75;;;5.70;;
46835;SDS011;32573;51.290;6.926;2023-02-22T08:56:28;10.27;;;5.45;;
46835;SDS011;32573;51.290;6.926;2023-02-22T08:59:00;11.50;;;5.85;;
46835;SDS011;32573;51.290;6.926;2023-02-22T09:01:36;10.15;;;5.00;;
46835;SDS011;32573;51.290;6.926;2023-02-22T09:04:12;9.68;;;5.35;;
46835;SDS011;32573;51.290;6.926;2023-02-22T09:06:44;11.18;;;5.10;;
46835;SDS011;32573;51.290;6.926;2023-02-22T09:09:19;10.63;;;5.70;;
46835;SDS011;32573;51.290;6.926;2023-02-22T09:11:51;9.88;;;5.30;;
46835;SDS011;32573;51.290;6.926;2023-02-22T09:14:37;11.63;;;5.95;;
46835;SDS011;32573;51.290;6.926;2023-02-22T09:17:09;10.70;;;6.03;;
46835;SDS011;32573;51.290;6.926;2023-02-22T09:19:45;9.38;;;5.15;;
46835;SDS011;32573;51.290;6.926;2023-02-22T09:22:19;12.00;;;5.28;;
46835;SDS011;32573;51.290;6.926;2023-02-22T09:24:56;11.38;;;6.15;;
46835;SDS011;32573;51.290;6.926;2023-02-22T09:27:45;10.18;;;5.28;;
46835;SDS011;32573;51.290;6.926;2023-02-22T09:30:26;11.43;;;5.82;;
46835;SDS011;32573;51.290;6.926;2023-02-22T09:33:05;13.30;;;5.82;;
46835;SDS011;32573;51.290;6.926;2023-02-22T09:35:42;11.27;;;5.95;;
46835;SDS011;32573;51.290;6.926;2023-02-22T09:38:23;13.23;;;6.95;;
46835;SDS011;32573;51.290;6.926;2023-02-22T09:41:06;11.65;;;6.00;;
46835;SDS011;32573;51.290;6.926;2023-02-22T09:43:47;14.98;;;7.60;;
46835;SDS011;32573;51.290;6.926;2023-02-22T09:46:35;12.50;;;6.57;;
46835;SDS011;32573;51.290;6.926;2023-02-22T09:49:16;10.77;;;5.35;;
46835;SDS011;32573;51.290;6.926;2023-02-22T09:52:00;11.95;;;5.88;;
46835;SDS011;32573;51.290;6.926;2023-02-22T09:54:45;11.85;;;6.20;;
46835;SDS011;32573;51.290;6.926;2023-02-22T09:57:26;13.25;;;5.90;;
46835;SDS011;32573;51.290;6.926;2023-02-22T10:00:12;14.43;;;6.85;;
46835;SDS011;32573;51.290;6.926;2023-02-22T10:02:45;12.15;;;5.32;;
46835;SDS011;32573;51.290;6.926;2023-02-22T10:05:25;9.27;;;5.10;;
46835;SDS011;32573;51.290;6.926;2023-02-22T10:08:02;11.48;;;5.60;;
46835;SDS011;32573;51.290;6.926;2023-02-22T10:10:38;12.60;;;6.68;;
46835;SDS011;32573;51.290;6.926;2023-02-22T10:13:15;11.30;;;5.53;;
46835;SDS011;32573;51.290;6.926;2023-02-22T10:15:56;10.82;;;5.22;;
46835;SDS011;32573;51.290;6.926;2023-02-22T10:18:44;10.57;;;4.70;;
46835;SDS011;32573;51.290;6.926;2023-02-22T10:21:34;9.60;;;5.05;;
46835;SDS011;32573;51.290;6.926;2023-02-22T10:24:17;8.88;;;4.93;;
46835;SDS011;32573;51.290;6.926;2023-02-22T10:27:00;11.02;;;5.65;;
46835;SDS011;32573;51.290;6.926;2023-02-22T10:29:35;10.95;;;6.00;;
46835;SDS011;32573;51.290;6.926;2023-02-22T10:32:10;12.80;;;6.30;;
46835;SDS011;32573;51.290;6.926;2023-02-22T10:34:53;10.88;;;6.50;;
46835;SDS011;32573;51.290;6.926;2023-02-22T10:40:42;8.65;;;4.93;;
46835;SDS011;32573;51.290;6.926;2023-02-22T10:43:56;9.95;;;5.30;;
46835;SDS011;32573;51.290;6.926;2023-02-22T10:47:17;10.63;;;5.25;;
46835;SDS011;32573;51.290;6.926;2023-02-22T10:49:59;8.90;;;4.82;;
46835;SDS011;32573;51.290;6.926;2023-02-22T10:52:50;10.40;;;5.35;;
46835;SDS011;32573;51.290;6.926;2023-02-22T10:55:21;8.80;;;4.40;;
46835;SDS011;32573;51.290;6.926;2023-02-22T10:57:50;8.10;;;4.32;;
46835;SDS011;32573;51.290;6.926;2023-02-22T11:00:32;7.78;;;4.80;;
46835;SDS011;32573;51.290;6.926;2023-02-22T11:03:04;9.75;;;4.90;;
46835;SDS011;32573;51.290;6.926;2023-02-22T11:05:43;7.43;;;3.80;;
46835;SDS011;32573;51.290;6.926;2023-02-22T11:08:12;9.25;;;4.85;;
46835;SDS011;32573;51.290;6.926;2023-02-22T11:10:43;9.57;;;4.68;;
46835;SDS011;32573;51.290;6.926;2023-02-22T11:13:18;8.30;;;4.70;;
46835;SDS011;32573;51.290;6.926;2023-02-22T11:16:15;6.95;;;3.70;;
46835;SDS011;32573;51.290;6.926;2023-02-22T11:18:46;6.68;;;3.88;;
46835;SDS011;32573;51.290;6.926;2023-02-22T11:21:20;7.63;;;4.05;;
46835;SDS011;32573;51.290;6.926;2023-02-22T11:23:59;6.63;;;3.60;;
46835;SDS011;32573;51.290;6.926;2023-02-22T11:26:35;6.47;;;3.60;;
46835;SDS011;32573;51.290;6.926;2023-02-22T11:29:10;8.50;;;3.95;;
46835;SDS011;32573;51.290;6.926;2023-02-22T11:31:43;6.60;;;3.78;;
46835;SDS011;32573;51.290;6.926;2023-02-22T11:34:33;7.25;;;3.53;;
46835;SDS011;32573;51.290;6.926;2023-02-22T11:37:14;6.45;;;3.47;;
46835;SDS011;32573;51.290;6.926;2023-02-22T11:39:44;6.95;;;3.65;;
46835;SDS011;32573;51.290;6.926;2023-02-22T11:42:18;6.57;;;3.88;;
46835;SDS011;32573;51.290;6.926;2023-02-22T11:45:06;6.53;;;3.58;;
46835;SDS011;32573;51.290;6.926;2023-02-22T11:47:53;6.20;;;3.35;;
46835;SDS011;32573;51.290;6.926;2023-02-22T11:50:26;6.20;;;3.50;;
46835;SDS011;32573;51.290;6.926;2023-02-22T11:55:50;6.72;;;3.38;;
46835;SDS011;32573;51.290;6.926;2023-02-22T11:58:34;6.50;;;3.60;;
46835;SDS011;32573;51.290;6.926;2023-02-22T12:01:14;6.10;;;3.72;;
46835;SDS011;32573;51.290;6.926;2023-02-22T12:04:12;6.32;;;3.38;;
46835;SDS011;32573;51.290;6.926;2023-02-22T12:07:10;7.25;;;3.47;;
46835;SDS011;32573;51.290;6.926;2023-02-22T12:12:29;7.05;;;3.33;;
46835;SDS011;32573;51.290;6.926;2023-02-22T12:15:22;5.80;;;3.10;;
46835;SDS011;32573;51.290;6.926;2023-02-22T12:18:00;6.32;;;3.28;;
46835;SDS011;32573;51.290;6.926;2023-02-22T12:20:42;6.38;;;3.15;;
46835;SDS011;32573;51.290;6.926;2023-02-22T12:26:06;5.53;;;2.92;;
46835;SDS011;32573;51.290;6.926;2023-02-22T12:28:50;6.47;;;3.10;;
46835;SDS011;32573;51.290;6.926;2023-02-22T12:31:34;7.13;;;3.65;;
46835;SDS011;32573;51.290;6.926;2023-02-22T12:34:10;6.93;;;3.30;;
46835;SDS011;32573;51.290;6.926;2023-02-22T12:36:50;6.38;;;3.60;;
46835;SDS011;32573;51.290;6.926;2023-02-22T12:39:34;6.22;;;3.60;;
46835;SDS011;32573;51.290;6.926;2023-02-22T12:42:29;6.63;;;3.85;;
46835;SDS011;32573;51.290;6.926;2023-02-22T12:45:20;6.63;;;3.35;;
46835;SDS011;32573;51.290;6.926;2023-02-22T12:48:06;6.93;;;3.88;;
46835;SDS011;32573;51.290;6.926;2023-02-22T12:50:52;6.05;;;3.20;;
46835;SDS011;32573;51.290;6.926;2023-02-22T12:53:29;7.15;;;4.00;;
46835;SDS011;32573;51.290;6.926;2023-02-22T12:56:06;10.02;;;3.70;;
46835;SDS011;32573;51.290;6.926;2023-02-22T12:58:50;7.78;;;3.92;;
46835;SDS011;32573;51.290;6.926;2023-02-22T13:01:26;6.35;;;3.78;;
46835;SDS011;32573;51.290;6.926;2023-02-22T13:03:59;6.45;;;3.67;;
46835;SDS011;32573;51.290;6.926;2023-02-22T13:06:53;6.65;;;3.40;;
46835;SDS011;32573;51.290;6.926;2023-02-22T13:09:47;8.05;;;3.55;;
46835;SDS011;32573;51.290;6.926;2023-02-22T13:12:30;7.10;;;3.33;;
46835;SDS011;32573;51.290;6.926;2023-02-22T13:15:15;7.72;;;3.95;;
46835;SDS011;32573;51.290;6.926;2023-02-22T13:17:53;7.72;;;3.30;;
46835;SDS011;32573;51.290;6.926;2023-02-22T13:20:31;7.20;;;3.60;;
46835;SDS011;32573;51.290;6.926;2023-02-22T13:23:06;7.43;;;3.85;;
46835;SDS011;32573;51.290;6.926;2023-02-22T13:25:48;8.00;;;3.58;;
46835;SDS011;32573;51.290;6.926;2023-02-22T13:28:27;7.00;;;3.60;;
46835;SDS011;32573;51.290;6.926;2023-02-22T13:31:03;6.13;;;3.35;;
46835;SDS011;32573;51.290;6.926;2023-02-22T13:33:54;6.13;;;2.90;;
46835;SDS011;32573;51.290;6.926;2023-02-22T13:36:47;8.15;;;3.97;;
46835;SDS011;32573;51.290;6.926;2023-02-22T13:39:32;7.10;;;3.80;;
46835;SDS011;32573;51.290;6.926;2023-02-22T13:51:31;6.10;;;3.30;;
46835;SDS011;32573;51.290;6.926;2023-02-22T13:54:10;6.53;;;3.35;;
46835;SDS011;32573;51.290;6.926;2023-02-22T13:56:45;8.13;;;3.33;;
46835;SDS011;32573;51.290;6.926;2023-02-22T14:02:06;6.43;;;3.40;;
46835;SDS011;32573;51.290;6.926;2023-02-22T14:04:54;7.03;;;3.47;;
46835;SDS011;32573;51.290;6.926;2023-02-22T14:13:14;6.97;;;3.78;;
46835;SDS011;32573;51.290;6.926;2023-02-22T14:18:47;6.57;;;3.08;;
46835;SDS011;32573;51.290;6.926;2023-02-22T14:21:18;7.00;;;3.80;;
46835;SDS011;32573;51.290;6.926;2023-02-22T14:23:48;6.00;;;3.50;;
46835;SDS011;32573;51.290;6.926;2023-02-22T14:26:22;5.72;;;2.90;;
46835;SDS011;32573;51.290;6.926;2023-02-22T14:28:54;6.45;;;3.47;;
46835;SDS011;32573;51.290;6.926;2023-02-22T14:31:26;5.95;;;3.60;;
46835;SDS011;32573;51.290;6.926;2023-02-22T14:34:04;6.47;;;3.20;;
46835;SDS011;32573;51.290;6.926;2023-02-22T14:36:46;6.72;;;3.80;;
46835;SDS011;32573;51.290;6.926;2023-02-22T14:39:19;7.55;;;3.70;;
46835;SDS011;32573;51.290;6.926;2023-02-22T14:41:54;5.95;;;3.40;;
46835;SDS011;32573;51.290;6.926;2023-02-22T14:44:29;6.22;;;3.15;;
46835;SDS011;32573;51.290;6.926;2023-02-22T14:47:05;5.90;;;3.28;;
46835;SDS011;32573;51.290;6.926;2023-02-22T14:49:37;7.30;;;3.63;;
46835;SDS011;32573;51.290;6.926;2023-02-22T14:52:15;5.80;;;2.90;;
46835;SDS011;32573;51.290;6.926;2023-02-22T14:54:57;8.25;;;3.42;;
46835;SDS011;32573;51.290;6.926;2023-02-22T14:57:34;6.78;;;3.92;;
46835;SDS011;32573;51.290;6.926;2023-02-22T15:00:13;6.15;;;3.30;;
46835;SDS011;32573;51.290;6.926;2023-02-22T15:02:50;5.82;;;3.63;;
46835;SDS011;32573;51.290;6.926;2023-02-22T15:05:23;6.18;;;3.92;;
46835;SDS011;32573;51.290;6.926;2023-02-22T15:07:56;7.05;;;3.95;;
46835;SDS011;32573;51.290;6.926;2023-02-22T15:10:29;6.65;;;3.67;;
46835;SDS011;32573;51.290;6.926;2023-02-22T15:13:16;7.30;;;4.00;;
46835;SDS011;32573;51.290;6.926;2023-02-22T15:15:46;8.02;;;4.05;;
46835;SDS011;32573;51.290;6.926;2023-02-22T15:18:25;6.22;;;3.85;;
46835;SDS011;32573;51.290;6.926;2023-02-22T15:23:26;7.78;;;3.75;;
46835;SDS011;32573;51.290;6.926;2023-02-22T15:25:59;6.53;;;3.97;;
46835;SDS011;32573;51.290;6.926;2023-02-22T15:28:29;6.65;;;3.55;;
46835;SDS011;32573;51.290;6.926;2023-02-22T15:31:17;7.18;;;3.95;;
46835;SDS011;32573;51.290;6.926;2023-02-22T15:33:55;6.07;;;3.20;;
46835;SDS011;32573;51.290;6.926;2023-02-22T15:36:25;6.50;;;3.60;;
46835;SDS011;32573;51.290;6.926;2023-02-22T15:38:56;5.90;;;3.40;;
46835;SDS011;32573;51.290;6.926;2023-02-22T15:41:27;6.60;;;3.88;;
46835;SDS011;32573;51.290;6.926;2023-02-22T15:43:58;6.32;;;3.63;;
46835;SDS011;32573;51.290;6.926;2023-02-22T15:46:39;7.35;;;3.78;;
46835;SDS011;32573;51.290;6.926;2023-02-22T15:49:22;6.53;;;3.63;;
46835;SDS011;32573;51.290;6.926;2023-02-22T15:52:00;6.60;;;3.97;;
46835;SDS011;32573;51.290;6.926;2023-02-22T15:54:40;6.97;;;4.22;;
46835;SDS011;32573;51.290;6.926;2023-02-22T15:57:15;6.22;;;4.10;;
46835;SDS011;32573;51.290;6.926;2023-02-22T15:59:46;7.00;;;4.25;;
46835;SDS011;32573;51.290;6.926;2023-02-22T16:02:21;7.55;;;4.35;;
46835;SDS011;32573;51.290;6.926;2023-02-22T16:05:00;8.30;;;4.10;;
46835;SDS011;32573;51.290;6.926;2023-02-22T16:07:34;7.75;;;4.60;;
46835;SDS011;32573;51.290;6.926;2023-02-22T16:10:13;7.18;;;4.32;;
46835;SDS011;32573;51.290;6.926;2023-02-22T16:12:48;8.48;;;4.50;;
46835;SDS011;32573;51.290;6.926;2023-02-22T16:15:18;7.97;;;4.95;;
46835;SDS011;32573;51.290;6.926;2023-02-22T16:17:49;8.38;;;4.70;;